sensor_id;sensor_type;location;lat;lon;timestamp;temperature;humidity
14517;DHT22;7344;50.864;4.362;2023-05-19T00:01:08;10.60;1.00
14517;DHT22;7344;50.864;4.362;2023-05-19T00:03:35;10.60;1.00
14517;DHT22;7344;50.864;4.362;2023-05-19T00:06:05;10.50;1.00
14517;DHT22;7344;50.864;4.362;2023-05-19T00:08:33;10.50;1.00
14517;DHT22;7344;50.864;4.362;2023-05-19T00:11:00;10.50;1.00
14517;DHT22;7344;50.864;4.362;2023-05-19T00:13:26;10.50;1.00
14517;DHT22;7344;50.864;4.362;2023-05-19T00:15:52;10.60;1.00
14517;DHT22;7344;50.864;4.362;2023-05-19T00:18:18;10.50;1.00
14517;DHT22;7344;50.864;4.362;2023-05-19T00:20:44;10.50;1.00
14517;DHT22;7344;50.864;4.362;2023-05-19T00:23:10;10.50;1.00
14517;DHT22;7344;50.864;4.362;2023-05-19T00:25:36;10.50;1.00
14517;DHT22;7344;50.864;4.362;2023-05-19T00:28:02;10.50;1.00
14517;DHT22;7344;50.864;4.362;2023-05-19T00:30:28;10.40;1.00
14517;DHT22;7344;50.864;4.362;2023-05-19T00:32:54;10.50;1.00
14517;DHT22;7344;50.864;4.362;2023-05-19T00:35:21;10.50;1.00
14517;DHT22;7344;50.864;4.362;2023-05-19T00:37:47;10.40;1.00
14517;DHT22;7344;50.864;4.362;2023-05-19T00:40:13;10.30;1.00
14517;DHT22;7344;50.864;4.362;2023-05-19T00:42:39;10.30;1.00
14517;DHT22;7344;50.864;4.362;2023-05-19T00:45:05;10.20;3.70
14517;DHT22;7344;50.864;4.362;2023-05-19T00:47:31;10.20;4.90
14517;DHT22;7344;50.864;4.362;2023-05-19T00:49:57;10.20;6.80
14517;DHT22;7344;50.864;4.362;2023-05-19T00:52:22;10.20;7.80
14517;DHT22;7344;50.864;4.362;2023-05-19T00:54:49;10.20;9.30
14517;DHT22;7344;50.864;4.362;2023-05-19T00:57:15;10.20;9.10
14517;DHT22;7344;50.864;4.362;2023-05-19T00:59:41;10.10;11.50
14517;DHT22;7344;50.864;4.362;2023-05-19T01:02:06;10.10;12.20
14517;DHT22;7344;50.864;4.362;2023-05-19T01:04:32;10.10;13.30
14517;DHT22;7344;50.864;4.362;2023-05-19T01:07:00;10.00;15.70
14517;DHT22;7344;50.864;4.362;2023-05-19T01:09:26;10.00;14.30
14517;DHT22;7344;50.864;4.362;2023-05-19T01:11:52;10.00;14.90
14517;DHT22;7344;50.864;4.362;2023-05-19T01:14:18;10.00;16.80
14517;DHT22;7344;50.864;4.362;2023-05-19T01:31:11;9.80;22.70
14517;DHT22;7344;50.864;4.362;2023-05-19T01:33:39;9.70;23.10
14517;DHT22;7344;50.864;4.362;2023-05-19T01:36:07;9.70;24.00
14517;DHT22;7344;50.864;4.362;2023-05-19T01:38:33;9.70;24.70
14517;DHT22;7344;50.864;4.362;2023-05-19T01:41:02;9.70;25.00
14517;DHT22;7344;50.864;4.362;2023-05-19T01:43:28;9.50;28.20
14517;DHT22;7344;50.864;4.362;2023-05-19T01:45:55;9.50;31.00
14517;DHT22;7344;50.864;4.362;2023-05-19T01:48:23;9.50;32.30
14517;DHT22;7344;50.864;4.362;2023-05-19T01:50:49;9.50;32.30
14517;DHT22;7344;50.864;4.362;2023-05-19T01:53:15;9.50;31.40
14517;DHT22;7344;50.864;4.362;2023-05-19T01:55:50;9.50;31.10
14517;DHT22;7344;50.864;4.362;2023-05-19T01:58:24;9.40;32.10
14517;DHT22;7344;50.864;4.362;2023-05-19T02:06:29;9.30;37.10
14517;DHT22;7344;50.864;4.362;2023-05-19T02:11:41;9.20;41.30
14517;DHT22;7344;50.864;4.362;2023-05-19T02:14:20;9.20;41.20
14517;DHT22;7344;50.864;4.362;2023-05-19T02:16:48;9.20;42.10
14517;DHT22;7344;50.864;4.362;2023-05-19T02:19:24;9.20;43.30
14517;DHT22;7344;50.864;4.362;2023-05-19T02:21:51;9.20;42.70
14517;DHT22;7344;50.864;4.362;2023-05-19T02:24:17;9.20;44.20
14517;DHT22;7344;50.864;4.362;2023-05-19T02:26:44;9.20;42.80
14517;DHT22;7344;50.864;4.362;2023-05-19T02:29:10;9.20;43.40
14517;DHT22;7344;50.864;4.362;2023-05-19T02:31:36;9.20;45.20
14517;DHT22;7344;50.864;4.362;2023-05-19T02:34:01;9.20;45.30
14517;DHT22;7344;50.864;4.362;2023-05-19T02:36:46;9.20;46.40
14517;DHT22;7344;50.864;4.362;2023-05-19T02:39:14;9.20;46.40
14517;DHT22;7344;50.864;4.362;2023-05-19T02:41:40;9.10;48.10
14517;DHT22;7344;50.864;4.362;2023-05-19T02:44:06;9.20;49.20
14517;DHT22;7344;50.864;4.362;2023-05-19T02:46:32;9.10;49.50
14517;DHT22;7344;50.864;4.362;2023-05-19T02:48:58;9.00;49.40
14517;DHT22;7344;50.864;4.362;2023-05-19T02:51:23;9.00;50.20
14517;DHT22;7344;50.864;4.362;2023-05-19T02:53:49;9.00;49.00
14517;DHT22;7344;50.864;4.362;2023-05-19T02:56:15;9.00;50.00
14517;DHT22;7344;50.864;4.362;2023-05-19T02:58:40;9.00;51.40
14517;DHT22;7344;50.864;4.362;2023-05-19T03:01:08;9.00;51.20
14517;DHT22;7344;50.864;4.362;2023-05-19T03:03:34;9.00;51.80
14517;DHT22;7344;50.864;4.362;2023-05-19T03:06:00;8.90;52.70
14517;DHT22;7344;50.864;4.362;2023-05-19T03:08:26;8.90;54.90
14517;DHT22;7344;50.864;4.362;2023-05-19T03:10:52;8.90;55.80
14517;DHT22;7344;50.864;4.362;2023-05-19T03:13:18;8.80;56.20
14517;DHT22;7344;50.864;4.362;2023-05-19T03:15:43;8.80;57.00
14517;DHT22;7344;50.864;4.362;2023-05-19T03:18:09;8.80;57.80
14517;DHT22;7344;50.864;4.362;2023-05-19T03:20:36;8.90;55.30
14517;DHT22;7344;50.864;4.362;2023-05-19T03:23:02;8.80;54.60
14517;DHT22;7344;50.864;4.362;2023-05-19T03:25:28;8.90;53.70
14517;DHT22;7344;50.864;4.362;2023-05-19T03:27:54;8.80;52.90
14517;DHT22;7344;50.864;4.362;2023-05-19T03:30:20;8.80;52.70
14517;DHT22;7344;50.864;4.362;2023-05-19T03:32:46;8.80;52.60
14517;DHT22;7344;50.864;4.362;2023-05-19T03:35:12;8.80;53.80
14517;DHT22;7344;50.864;4.362;2023-05-19T03:37:37;8.80;53.70
14517;DHT22;7344;50.864;4.362;2023-05-19T03:40:03;8.70;52.90
14517;DHT22;7344;50.864;4.362;2023-05-19T03:42:30;8.80;53.90
14517;DHT22;7344;50.864;4.362;2023-05-19T03:44:55;8.70;55.10
14517;DHT22;7344;50.864;4.362;2023-05-19T03:47:21;8.70;56.40
14517;DHT22;7344;50.864;4.362;2023-05-19T03:49:47;8.70;57.00
14517;DHT22;7344;50.864;4.362;2023-05-19T03:52:12;8.60;58.50
14517;DHT22;7344;50.864;4.362;2023-05-19T03:54:38;8.60;61.50
14517;DHT22;7344;50.864;4.362;2023-05-19T03:57:04;8.60;63.70
14517;DHT22;7344;50.864;4.362;2023-05-19T03:59:30;8.60;64.80
14517;DHT22;7344;50.864;4.362;2023-05-19T04:01:56;8.70;65.40
14517;DHT22;7344;50.864;4.362;2023-05-19T04:04:22;8.70;62.50
14517;DHT22;7344;50.864;4.362;2023-05-19T04:06:48;8.70;60.30
14517;DHT22;7344;50.864;4.362;2023-05-19T04:09:14;8.70;59.50
14517;DHT22;7344;50.864;4.362;2023-05-19T04:11:41;8.70;65.70
14517;DHT22;7344;50.864;4.362;2023-05-19T04:14:07;8.70;64.20
14517;DHT22;7344;50.864;4.362;2023-05-19T04:16:33;8.70;70.60
14517;DHT22;7344;50.864;4.362;2023-05-19T04:18:58;8.80;68.20
14517;DHT22;7344;50.864;4.362;2023-05-19T04:21:24;9.00;63.60
14517;DHT22;7344;50.864;4.362;2023-05-19T04:23:50;9.20;51.20
14517;DHT22;7344;50.864;4.362;2023-05-19T04:26:16;9.40;41.90
14517;DHT22;7344;50.864;4.362;2023-05-19T04:28:43;9.80;35.00
14517;DHT22;7344;50.864;4.362;2023-05-19T04:31:10;10.10;23.30
14517;DHT22;7344;50.864;4.362;2023-05-19T04:33:37;10.20;13.60
14517;DHT22;7344;50.864;4.362;2023-05-19T04:36:04;10.50;10.40
14517;DHT22;7344;50.864;4.362;2023-05-19T04:38:30;10.90;1.00
14517;DHT22;7344;50.864;4.362;2023-05-19T04:40:55;11.40;1.00
14517;DHT22;7344;50.864;4.362;2023-05-19T04:43:21;11.70;1.00
14517;DHT22;7344;50.864;4.362;2023-05-19T04:45:47;11.90;1.00
14517;DHT22;7344;50.864;4.362;2023-05-19T04:48:15;12.50;1.00
14517;DHT22;7344;50.864;4.362;2023-05-19T04:50:41;12.50;1.00
14517;DHT22;7344;50.864;4.362;2023-05-19T04:53:08;12.60;1.00
14517;DHT22;7344;50.864;4.362;2023-05-19T04:55:34;12.70;1.00
14517;DHT22;7344;50.864;4.362;2023-05-19T04:57:59;13.10;1.00
14517;DHT22;7344;50.864;4.362;2023-05-19T05:00:25;13.80;1.00
14517;DHT22;7344;50.864;4.362;2023-05-19T05:02:51;14.10;1.00
14517;DHT22;7344;50.864;4.362;2023-05-19T05:05:16;15.10;1.00
14517;DHT22;7344;50.864;4.362;2023-05-19T05:07:42;15.30;1.00
14517;DHT22;7344;50.864;4.362;2023-05-19T05:10:08;15.80;1.00
14517;DHT22;7344;50.864;4.362;2023-05-19T05:12:34;16.20;99.90
14517;DHT22;7344;50.864;4.362;2023-05-19T05:15:00;16.70;1.00
14517;DHT22;7344;50.864;4.362;2023-05-19T05:17:26;16.90;99.90
14517;DHT22;7344;50.864;4.362;2023-05-19T05:19:52;18.20;99.90
14517;DHT22;7344;50.864;4.362;2023-05-19T05:22:18;18.60;36.80
14517;DHT22;7344;50.864;4.362;2023-05-19T05:24:44;18.70;99.90
14517;DHT22;7344;50.864;4.362;2023-05-19T05:27:10;19.00;99.90
14517;DHT22;7344;50.864;4.362;2023-05-19T05:29:36;18.60;1.00
14517;DHT22;7344;50.864;4.362;2023-05-19T05:32:01;17.70;99.90
14517;DHT22;7344;50.864;4.362;2023-05-19T05:34:27;17.50;1.00
14517;DHT22;7344;50.864;4.362;2023-05-19T05:36:53;18.50;99.90
14517;DHT22;7344;50.864;4.362;2023-05-19T05:39:19;18.30;1.00
14517;DHT22;7344;50.864;4.362;2023-05-19T05:41:44;18.40;99.90
14517;DHT22;7344;50.864;4.362;2023-05-19T05:44:10;17.60;1.00
14517;DHT22;7344;50.864;4.362;2023-05-19T05:46:36;18.10;99.90
14517;DHT22;7344;50.864;4.362;2023-05-19T05:49:01;19.00;1.00
14517;DHT22;7344;50.864;4.362;2023-05-19T05:51:27;19.40;1.00
14517;DHT22;7344;50.864;4.362;2023-05-19T05:53:54;18.50;1.00
14517;DHT22;7344;50.864;4.362;2023-05-19T05:56:20;17.90;99.90
14517;DHT22;7344;50.864;4.362;2023-05-19T05:58:46;17.80;1.00
14517;DHT22;7344;50.864;4.362;2023-05-19T06:01:12;17.60;1.00
14517;DHT22;7344;50.864;4.362;2023-05-19T06:03:39;17.60;99.90
14517;DHT22;7344;50.864;4.362;2023-05-19T06:06:05;17.70;1.00
14517;DHT22;7344;50.864;4.362;2023-05-19T06:08:31;18.50;99.90
14517;DHT22;7344;50.864;4.362;2023-05-19T06:10:57;19.10;1.00
14517;DHT22;7344;50.864;4.362;2023-05-19T06:13:23;19.90;99.90
14517;DHT22;7344;50.864;4.362;2023-05-19T06:15:50;19.40;1.00
14517;DHT22;7344;50.864;4.362;2023-05-19T06:18:16;18.50;58.10
14517;DHT22;7344;50.864;4.362;2023-05-19T06:20:42;18.90;99.90
14517;DHT22;7344;50.864;4.362;2023-05-19T06:23:07;18.70;1.00
14517;DHT22;7344;50.864;4.362;2023-05-19T06:25:33;18.50;1.00
14517;DHT22;7344;50.864;4.362;2023-05-19T06:27:58;19.30;99.90
14517;DHT22;7344;50.864;4.362;2023-05-19T06:30:24;20.00;99.90
14517;DHT22;7344;50.864;4.362;2023-05-19T06:32:50;20.30;31.70
14517;DHT22;7344;50.864;4.362;2023-05-19T06:35:16;21.00;1.00
14517;DHT22;7344;50.864;4.362;2023-05-19T06:37:41;21.00;99.90
14517;DHT22;7344;50.864;4.362;2023-05-19T06:40:07;20.10;1.00
14517;DHT22;7344;50.864;4.362;2023-05-19T06:42:33;19.90;99.90
14517;DHT22;7344;50.864;4.362;2023-05-19T06:44:59;19.50;1.00
14517;DHT22;7344;50.864;4.362;2023-05-19T06:47:24;21.20;99.90
14517;DHT22;7344;50.864;4.362;2023-05-19T06:49:50;22.20;1.00
14517;DHT22;7344;50.864;4.362;2023-05-19T06:52:23;21.90;1.00
14517;DHT22;7344;50.864;4.362;2023-05-19T06:54:49;21.10;1.00
14517;DHT22;7344;50.864;4.362;2023-05-19T06:57:15;21.90;77.20
14517;DHT22;7344;50.864;4.362;2023-05-19T06:59:40;23.10;1.00
14517;DHT22;7344;50.864;4.362;2023-05-19T07:02:08;23.10;1.00
14517;DHT22;7344;50.864;4.362;2023-05-19T07:04:34;23.50;1.00
14517;DHT22;7344;50.864;4.362;2023-05-19T07:07:00;23.00;1.00
14517;DHT22;7344;50.864;4.362;2023-05-19T07:09:26;23.40;1.00
14517;DHT22;7344;50.864;4.362;2023-05-19T07:11:51;22.80;1.00
14517;DHT22;7344;50.864;4.362;2023-05-19T07:14:17;24.10;1.00
14517;DHT22;7344;50.864;4.362;2023-05-19T07:16:43;24.30;56.70
14517;DHT22;7344;50.864;4.362;2023-05-19T07:19:09;24.40;55.40
14517;DHT22;7344;50.864;4.362;2023-05-19T07:21:34;23.20;57.40
14517;DHT22;7344;50.864;4.362;2023-05-19T07:24:00;23.80;1.00
14517;DHT22;7344;50.864;4.362;2023-05-19T07:26:26;25.20;54.90
14517;DHT22;7344;50.864;4.362;2023-05-19T07:28:52;24.30;54.00
14517;DHT22;7344;50.864;4.362;2023-05-19T07:31:18;23.90;55.00
14517;DHT22;7344;50.864;4.362;2023-05-19T07:33:44;23.80;55.20
14517;DHT22;7344;50.864;4.362;2023-05-19T07:36:11;24.30;1.00
14517;DHT22;7344;50.864;4.362;2023-05-19T07:38:36;25.20;53.90
14517;DHT22;7344;50.864;4.362;2023-05-19T07:41:02;25.40;51.90
14517;DHT22;7344;50.864;4.362;2023-05-19T07:43:28;25.40;51.40
14517;DHT22;7344;50.864;4.362;2023-05-19T07:45:54;25.80;50.80
14517;DHT22;7344;50.864;4.362;2023-05-19T07:48:21;26.00;49.30
14517;DHT22;7344;50.864;4.362;2023-05-19T07:50:50;24.90;50.00
14517;DHT22;7344;50.864;4.362;2023-05-19T07:53:17;25.40;99.90
14517;DHT22;7344;50.864;4.362;2023-05-19T07:55:43;25.60;99.90
14517;DHT22;7344;50.864;4.362;2023-05-19T07:58:09;26.10;99.90
14517;DHT22;7344;50.864;4.362;2023-05-19T08:00:34;25.50;99.90
14517;DHT22;7344;50.864;4.362;2023-05-19T08:03:01;25.10;99.90
14517;DHT22;7344;50.864;4.362;2023-05-19T08:05:27;25.90;99.90
14517;DHT22;7344;50.864;4.362;2023-05-19T08:07:54;26.90;99.90
14517;DHT22;7344;50.864;4.362;2023-05-19T08:10:20;26.20;1.00
14517;DHT22;7344;50.864;4.362;2023-05-19T08:12:46;25.00;99.90
14517;DHT22;7344;50.864;4.362;2023-05-19T08:15:12;25.10;99.90
14517;DHT22;7344;50.864;4.362;2023-05-19T08:17:37;25.20;99.90
14517;DHT22;7344;50.864;4.362;2023-05-19T08:20:04;26.10;99.90
14517;DHT22;7344;50.864;4.362;2023-05-19T08:22:34;26.90;1.00
14517;DHT22;7344;50.864;4.362;2023-05-19T08:24:59;27.10;45.70
14517;DHT22;7344;50.864;4.362;2023-05-19T08:27:25;27.50;45.70
14517;DHT22;7344;50.864;4.362;2023-05-19T08:29:51;27.60;44.00
14517;DHT22;7344;50.864;4.362;2023-05-19T08:32:17;26.60;46.20
14517;DHT22;7344;50.864;4.362;2023-05-19T08:34:42;26.20;44.90
14517;DHT22;7344;50.864;4.362;2023-05-19T08:37:08;26.30;47.10
14517;DHT22;7344;50.864;4.362;2023-05-19T08:39:33;26.00;46.00
14517;DHT22;7344;50.864;4.362;2023-05-19T08:42:00;26.40;46.30
14517;DHT22;7344;50.864;4.362;2023-05-19T08:44:27;26.10;46.20
14517;DHT22;7344;50.864;4.362;2023-05-19T08:47:01;26.20;46.90
14517;DHT22;7344;50.864;4.362;2023-05-19T08:49:31;25.60;46.70
14517;DHT22;7344;50.864;4.362;2023-05-19T08:52:21;24.80;48.50
14517;DHT22;7344;50.864;4.362;2023-05-19T08:54:53;25.90;46.20
14517;DHT22;7344;50.864;4.362;2023-05-19T08:57:22;25.80;47.60
14517;DHT22;7344;50.864;4.362;2023-05-19T08:59:50;27.10;46.30
14517;DHT22;7344;50.864;4.362;2023-05-19T09:02:17;27.90;43.70
14517;DHT22;7344;50.864;4.362;2023-05-19T09:04:43;27.70;43.30
14517;DHT22;7344;50.864;4.362;2023-05-19T09:07:13;28.20;41.00
14517;DHT22;7344;50.864;4.362;2023-05-19T09:09:40;27.00;42.60
14517;DHT22;7344;50.864;4.362;2023-05-19T09:12:08;27.30;43.20
14517;DHT22;7344;50.864;4.362;2023-05-19T09:14:35;27.80;42.40
14517;DHT22;7344;50.864;4.362;2023-05-19T09:17:01;27.40;41.40
14517;DHT22;7344;50.864;4.362;2023-05-19T09:19:30;26.50;42.70
14517;DHT22;7344;50.864;4.362;2023-05-19T09:22:02;26.70;42.90
14517;DHT22;7344;50.864;4.362;2023-05-19T09:24:28;25.60;44.50
14517;DHT22;7344;50.864;4.362;2023-05-19T09:26:54;25.20;44.90
14517;DHT22;7344;50.864;4.362;2023-05-19T09:29:24;25.50;45.40
14517;DHT22;7344;50.864;4.362;2023-05-19T09:31:54;24.00;44.50
14517;DHT22;7344;50.864;4.362;2023-05-19T09:34:26;24.50;46.10
14517;DHT22;7344;50.864;4.362;2023-05-19T09:36:52;24.50;46.00
14517;DHT22;7344;50.864;4.362;2023-05-19T09:39:19;24.10;46.20
14517;DHT22;7344;50.864;4.362;2023-05-19T09:41:46;23.90;46.70
14517;DHT22;7344;50.864;4.362;2023-05-19T09:44:22;24.30;46.90
14517;DHT22;7344;50.864;4.362;2023-05-19T09:46:51;24.60;45.70
14517;DHT22;7344;50.864;4.362;2023-05-19T09:49:24;23.70;47.00
14517;DHT22;7344;50.864;4.362;2023-05-19T09:51:53;24.50;47.10
14517;DHT22;7344;50.864;4.362;2023-05-19T09:54:20;25.30;45.00
14517;DHT22;7344;50.864;4.362;2023-05-19T09:56:55;25.50;42.90
14517;DHT22;7344;50.864;4.362;2023-05-19T09:59:23;24.10;43.90
14517;DHT22;7344;50.864;4.362;2023-05-19T10:01:53;23.20;45.30
14517;DHT22;7344;50.864;4.362;2023-05-19T10:04:20;22.80;46.30
14517;DHT22;7344;50.864;4.362;2023-05-19T10:06:49;22.70;99.90
14517;DHT22;7344;50.864;4.362;2023-05-19T10:09:25;22.20;99.90
14517;DHT22;7344;50.864;4.362;2023-05-19T10:11:54;22.50;1.00
14517;DHT22;7344;50.864;4.362;2023-05-19T10:14:25;23.90;99.90
14517;DHT22;7344;50.864;4.362;2023-05-19T10:16:52;23.10;99.90
14517;DHT22;7344;50.864;4.362;2023-05-19T10:19:22;23.10;99.90
14517;DHT22;7344;50.864;4.362;2023-05-19T10:21:49;23.10;99.90
14517;DHT22;7344;50.864;4.362;2023-05-19T10:24:15;23.00;99.90
14517;DHT22;7344;50.864;4.362;2023-05-19T10:26:50;23.00;2.00
14517;DHT22;7344;50.864;4.362;2023-05-19T10:29:20;22.00;47.00
14517;DHT22;7344;50.864;4.362;2023-05-19T10:31:49;21.10;1.00
14517;DHT22;7344;50.864;4.362;2023-05-19T10:40:25;22.90;99.90
14517;DHT22;7344;50.864;4.362;2023-05-19T10:45:51;23.60;99.90
14517;DHT22;7344;50.864;4.362;2023-05-19T10:48:19;22.40;99.90
14517;DHT22;7344;50.864;4.362;2023-05-19T10:50:46;22.70;99.90
14517;DHT22;7344;50.864;4.362;2023-05-19T10:53:16;22.70;99.90
14517;DHT22;7344;50.864;4.362;2023-05-19T10:55:54;22.30;99.90
14517;DHT22;7344;50.864;4.362;2023-05-19T10:58:38;22.60;99.90
14517;DHT22;7344;50.864;4.362;2023-05-19T11:01:20;21.90;1.00
14517;DHT22;7344;50.864;4.362;2023-05-19T11:03:52;21.60;1.00
14517;DHT22;7344;50.864;4.362;2023-05-19T11:06:19;20.10;1.00
14517;DHT22;7344;50.864;4.362;2023-05-19T11:08:45;20.40;3.60
14517;DHT22;7344;50.864;4.362;2023-05-19T11:11:16;20.80;1.00
14517;DHT22;7344;50.864;4.362;2023-05-19T11:13:53;20.80;1.00
14517;DHT22;7344;50.864;4.362;2023-05-19T11:16:30;21.10;1.00
14517;DHT22;7344;50.864;4.362;2023-05-19T11:18:59;21.20;1.00
14517;DHT22;7344;50.864;4.362;2023-05-19T11:22:07;21.60;1.00
14517;DHT22;7344;50.864;4.362;2023-05-19T11:29:57;21.90;1.00
14517;DHT22;7344;50.864;4.362;2023-05-19T11:32:29;21.20;1.00
14517;DHT22;7344;50.864;4.362;2023-05-19T11:34:56;21.00;1.00
14517;DHT22;7344;50.864;4.362;2023-05-19T11:37:22;21.90;1.00
14517;DHT22;7344;50.864;4.362;2023-05-19T11:39:48;22.30;1.00
14517;DHT22;7344;50.864;4.362;2023-05-19T11:42:14;22.40;1.00
14517;DHT22;7344;50.864;4.362;2023-05-19T11:44:41;23.30;1.00
14517;DHT22;7344;50.864;4.362;2023-05-19T11:47:09;23.80;1.00
14517;DHT22;7344;50.864;4.362;2023-05-19T11:49:35;24.00;99.90
14517;DHT22;7344;50.864;4.362;2023-05-19T11:52:02;23.60;99.90
14517;DHT22;7344;50.864;4.362;2023-05-19T11:54:29;22.90;99.90
14517;DHT22;7344;50.864;4.362;2023-05-19T11:57:01;22.60;99.90
14517;DHT22;7344;50.864;4.362;2023-05-19T11:59:31;21.60;99.90
14517;DHT22;7344;50.864;4.362;2023-05-19T12:02:00;20.90;1.00
14517;DHT22;7344;50.864;4.362;2023-05-19T12:04:26;21.10;1.00
14517;DHT22;7344;50.864;4.362;2023-05-19T12:06:52;20.80;1.00
14517;DHT22;7344;50.864;4.362;2023-05-19T12:09:21;20.50;1.00
14517;DHT22;7344;50.864;4.362;2023-05-19T12:11:46;20.50;1.00
14517;DHT22;7344;50.864;4.362;2023-05-19T12:14:12;20.70;1.00
14517;DHT22;7344;50.864;4.362;2023-05-19T12:16:37;20.20;1.00
14517;DHT22;7344;50.864;4.362;2023-05-19T12:19:07;20.30;1.00
14517;DHT22;7344;50.864;4.362;2023-05-19T12:21:32;20.20;1.00
14517;DHT22;7344;50.864;4.362;2023-05-19T12:23:58;20.40;1.00
14517;DHT22;7344;50.864;4.362;2023-05-19T12:26:24;20.30;1.00
14517;DHT22;7344;50.864;4.362;2023-05-19T12:28:50;20.00;1.00
14517;DHT22;7344;50.864;4.362;2023-05-19T12:31:17;19.60;1.00
14517;DHT22;7344;50.864;4.362;2023-05-19T12:33:44;19.60;99.90
14517;DHT22;7344;50.864;4.362;2023-05-19T12:36:11;19.60;1.00
14517;DHT22;7344;50.864;4.362;2023-05-19T12:38:38;20.10;1.00
14517;DHT22;7344;50.864;4.362;2023-05-19T12:41:04;20.20;81.50
14517;DHT22;7344;50.864;4.362;2023-05-19T12:43:31;19.90;98.30
14517;DHT22;7344;50.864;4.362;2023-05-19T12:45:57;20.10;39.80
14517;DHT22;7344;50.864;4.362;2023-05-19T12:48:23;20.30;1.00
14517;DHT22;7344;50.864;4.362;2023-05-19T12:50:51;20.30;1.00
14517;DHT22;7344;50.864;4.362;2023-05-19T12:53:19;20.30;1.00
14517;DHT22;7344;50.864;4.362;2023-05-19T12:55:45;20.40;1.00
14517;DHT22;7344;50.864;4.362;2023-05-19T12:58:11;20.80;1.00
14517;DHT22;7344;50.864;4.362;2023-05-19T13:00:41;20.30;1.00
14517;DHT22;7344;50.864;4.362;2023-05-19T13:03:16;20.30;1.00
14517;DHT22;7344;50.864;4.362;2023-05-19T13:05:44;20.20;1.00
14517;DHT22;7344;50.864;4.362;2023-05-19T13:08:15;20.10;1.00
14517;DHT22;7344;50.864;4.362;2023-05-19T13:10:43;20.10;1.00
14517;DHT22;7344;50.864;4.362;2023-05-19T13:13:10;20.50;1.00
14517;DHT22;7344;50.864;4.362;2023-05-19T13:15:37;20.50;1.00
14517;DHT22;7344;50.864;4.362;2023-05-19T13:18:06;20.10;1.00
14517;DHT22;7344;50.864;4.362;2023-05-19T13:20:36;20.10;1.00
14517;DHT22;7344;50.864;4.362;2023-05-19T13:23:02;20.00;1.00
14517;DHT22;7344;50.864;4.362;2023-05-19T13:25:32;19.80;1.00
14517;DHT22;7344;50.864;4.362;2023-05-19T13:27:58;20.30;1.00
14517;DHT22;7344;50.864;4.362;2023-05-19T13:30:26;20.70;1.00
14517;DHT22;7344;50.864;4.362;2023-05-19T13:32:52;20.40;1.00
14517;DHT22;7344;50.864;4.362;2023-05-19T13:35:18;20.10;1.00
14517;DHT22;7344;50.864;4.362;2023-05-19T13:37:44;20.10;1.00
14517;DHT22;7344;50.864;4.362;2023-05-19T13:40:12;20.30;1.00
14517;DHT22;7344;50.864;4.362;2023-05-19T13:42:38;20.70;1.00
14517;DHT22;7344;50.864;4.362;2023-05-19T13:45:04;21.10;1.00
14517;DHT22;7344;50.864;4.362;2023-05-19T13:47:29;21.30;1.00
14517;DHT22;7344;50.864;4.362;2023-05-19T13:49:55;21.60;1.00
14517;DHT22;7344;50.864;4.362;2023-05-19T13:52:21;21.40;99.90
14517;DHT22;7344;50.864;4.362;2023-05-19T13:54:47;21.00;1.00
14517;DHT22;7344;50.864;4.362;2023-05-19T13:57:14;20.30;1.00
14517;DHT22;7344;50.864;4.362;2023-05-19T13:59:40;20.20;1.00
14517;DHT22;7344;50.864;4.362;2023-05-19T14:02:07;20.50;1.00
14517;DHT22;7344;50.864;4.362;2023-05-19T14:04:36;20.80;1.00
14517;DHT22;7344;50.864;4.362;2023-05-19T14:07:03;21.10;1.00
14517;DHT22;7344;50.864;4.362;2023-05-19T14:09:29;21.20;1.00
14517;DHT22;7344;50.864;4.362;2023-05-19T14:11:55;20.60;1.00
14517;DHT22;7344;50.864;4.362;2023-05-19T14:14:21;20.10;1.00
14517;DHT22;7344;50.864;4.362;2023-05-19T14:16:47;20.20;1.00
14517;DHT22;7344;50.864;4.362;2023-05-19T14:19:13;20.30;1.00
14517;DHT22;7344;50.864;4.362;2023-05-19T14:21:39;20.10;1.00
14517;DHT22;7344;50.864;4.362;2023-05-19T14:24:05;20.00;1.00
14517;DHT22;7344;50.864;4.362;2023-05-19T14:26:31;19.90;1.00
14517;DHT22;7344;50.864;4.362;2023-05-19T14:28:56;20.10;1.00
14517;DHT22;7344;50.864;4.362;2023-05-19T14:31:22;20.10;1.00
14517;DHT22;7344;50.864;4.362;2023-05-19T14:33:48;20.10;34.80
14517;DHT22;7344;50.864;4.362;2023-05-19T14:36:13;19.90;1.00
14517;DHT22;7344;50.864;4.362;2023-05-19T14:38:39;19.50;99.90
14517;DHT22;7344;50.864;4.362;2023-05-19T14:41:05;19.40;99.90
14517;DHT22;7344;50.864;4.362;2023-05-19T14:43:31;19.60;99.90
14517;DHT22;7344;50.864;4.362;2023-05-19T14:45:57;19.90;98.30
14517;DHT22;7344;50.864;4.362;2023-05-19T14:48:22;20.20;1.00
14517;DHT22;7344;50.864;4.362;2023-05-19T14:50:48;20.20;1.00
14517;DHT22;7344;50.864;4.362;2023-05-19T14:53:14;20.00;1.00
14517;DHT22;7344;50.864;4.362;2023-05-19T14:55:40;20.10;1.00
14517;DHT22;7344;50.864;4.362;2023-05-19T14:58:06;20.10;1.00
14517;DHT22;7344;50.864;4.362;2023-05-19T15:00:32;20.40;1.00
14517;DHT22;7344;50.864;4.362;2023-05-19T15:02:57;20.50;1.00
14517;DHT22;7344;50.864;4.362;2023-05-19T15:05:23;20.60;1.00
14517;DHT22;7344;50.864;4.362;2023-05-19T15:07:49;20.50;1.00
14517;DHT22;7344;50.864;4.362;2023-05-19T15:10:16;20.20;1.00
14517;DHT22;7344;50.864;4.362;2023-05-19T15:12:41;20.00;1.00
14517;DHT22;7344;50.864;4.362;2023-05-19T15:15:07;20.00;1.00
14517;DHT22;7344;50.864;4.362;2023-05-19T15:17:33;20.20;1.00
14517;DHT22;7344;50.864;4.362;2023-05-19T15:19:59;20.20;1.00
14517;DHT22;7344;50.864;4.362;2023-05-19T15:22:25;20.10;1.00
14517;DHT22;7344;50.864;4.362;2023-05-19T15:24:50;19.90;1.00
14517;DHT22;7344;50.864;4.362;2023-05-19T15:27:16;19.90;1.00
14517;DHT22;7344;50.864;4.362;2023-05-19T15:29:42;19.90;1.00
14517;DHT22;7344;50.864;4.362;2023-05-19T15:32:07;19.80;1.00
14517;DHT22;7344;50.864;4.362;2023-05-19T15:34:33;19.80;1.00
14517;DHT22;7344;50.864;4.362;2023-05-19T15:36:59;19.70;1.00
14517;DHT22;7344;50.864;4.362;2023-05-19T15:39:24;19.80;1.00
14517;DHT22;7344;50.864;4.362;2023-05-19T15:41:50;19.80;99.90
14517;DHT22;7344;50.864;4.362;2023-05-19T15:44:16;20.00;99.90
14517;DHT22;7344;50.864;4.362;2023-05-19T15:46:41;20.00;1.00
14517;DHT22;7344;50.864;4.362;2023-05-19T15:49:07;19.90;1.00
14517;DHT22;7344;50.864;4.362;2023-05-19T15:51:33;19.80;1.00
14517;DHT22;7344;50.864;4.362;2023-05-19T15:53:59;19.80;1.00
14517;DHT22;7344;50.864;4.362;2023-05-19T15:56:25;19.80;1.00
14517;DHT22;7344;50.864;4.362;2023-05-19T15:58:51;19.60;1.00
14517;DHT22;7344;50.864;4.362;2023-05-19T16:01:16;19.70;1.00
14517;DHT22;7344;50.864;4.362;2023-05-19T16:03:43;19.80;1.00
14517;DHT22;7344;50.864;4.362;2023-05-19T16:06:09;19.80;1.00
14517;DHT22;7344;50.864;4.362;2023-05-19T16:08:34;19.80;1.00
14517;DHT22;7344;50.864;4.362;2023-05-19T16:11:00;19.80;1.00
14517;DHT22;7344;50.864;4.362;2023-05-19T16:13:26;19.80;1.00
14517;DHT22;7344;50.864;4.362;2023-05-19T16:15:51;19.90;1.00
14517;DHT22;7344;50.864;4.362;2023-05-19T16:18:17;19.90;1.00
14517;DHT22;7344;50.864;4.362;2023-05-19T16:20:43;20.00;1.00
14517;DHT22;7344;50.864;4.362;2023-05-19T16:23:09;20.00;1.00
14517;DHT22;7344;50.864;4.362;2023-05-19T16:25:35;19.90;1.00
14517;DHT22;7344;50.864;4.362;2023-05-19T16:28:00;20.10;1.00
14517;DHT22;7344;50.864;4.362;2023-05-19T16:30:26;20.10;1.00
14517;DHT22;7344;50.864;4.362;2023-05-19T16:32:52;20.00;1.00